createdAt,value
2023-08-05T00:02:01.912Z,16.55
2023-08-05T00:04:29.022Z,16.48
2023-08-05T00:06:56.142Z,16.45
2023-08-05T00:09:23.298Z,16.42
2023-08-05T00:11:50.409Z,16.39
2023-08-05T00:14:17.534Z,16.39
2023-08-05T00:16:44.779Z,16.35
2023-08-05T00:19:11.882Z,16.36
2023-08-05T00:21:39.015Z,16.35
2023-08-05T00:24:06.133Z,16.30
2023-08-05T00:26:33.353Z,16.22
2023-08-05T00:29:00.537Z,16.18
2023-08-05T00:31:27.701Z,16.20
2023-08-05T00:33:55.122Z,16.22
2023-08-05T00:36:22.310Z,16.20
2023-08-05T00:38:49.509Z,16.13
2023-08-05T00:41:16.588Z,16.15
2023-08-05T00:43:43.728Z,16.16
2023-08-05T00:46:11.041Z,16.15
2023-08-05T00:48:38.249Z,16.17
2023-08-05T00:51:08.863Z,16.21
2023-08-05T00:53:37.290Z,16.22
2023-08-05T00:56:04.506Z,16.23
2023-08-05T00:58:34.392Z,16.24
2023-08-05T01:01:01.588Z,16.26
2023-08-05T01:03:28.749Z,16.31
2023-08-05T01:05:56.231Z,16.30
2023-08-05T01:08:24.080Z,16.33
2023-08-05T01:10:51.333Z,16.34
2023-08-05T01:13:18.528Z,16.32
2023-08-05T01:15:45.742Z,16.34
2023-08-05T01:18:15.152Z,16.37
2023-08-05T01:20:47.749Z,16.38
2023-08-05T01:23:36.907Z,16.38
2023-08-05T01:26:05.831Z,16.36
2023-08-05T01:28:33.913Z,16.32
2023-08-05T01:31:01.847Z,16.30
2023-08-05T01:33:29.719Z,16.25
2023-08-05T01:35:56.897Z,16.21
2023-08-05T01:38:24.085Z,16.23
2023-08-05T01:40:51.200Z,16.18
2023-08-05T01:43:18.337Z,16.13
2023-08-05T01:45:45.439Z,16.10
2023-08-05T01:48:12.598Z,16.04
2023-08-05T01:50:39.878Z,16.02
2023-08-05T01:53:06.975Z,16.00
2023-08-05T01:55:34.174Z,16.00
2023-08-05T01:58:01.276Z,16.04
2023-08-05T02:00:28.396Z,16.06
2023-08-05T02:02:55.777Z,16.03
2023-08-05T02:05:23.736Z,15.98
2023-08-05T02:07:51.083Z,15.98
2023-08-05T02:10:18.286Z,15.99
2023-08-05T02:12:45.368Z,15.96
2023-08-05T02:15:12.689Z,16.00
2023-08-05T02:17:39.831Z,16.02
2023-08-05T02:20:08.941Z,16.05
2023-08-05T02:22:36.099Z,16.07
2023-08-05T02:25:03.244Z,16.08
2023-08-05T02:27:30.372Z,16.07
2023-08-05T02:29:57.631Z,16.06
2023-08-05T02:32:24.782Z,15.99
2023-08-05T02:34:51.899Z,15.98
2023-08-05T02:37:19.064Z,15.98
2023-08-05T02:39:46.162Z,15.98
2023-08-05T02:42:13.257Z,16.02
2023-08-05T02:44:40.420Z,16.05
2023-08-05T02:47:07.602Z,16.07
2023-08-05T02:49:34.812Z,16.02
2023-08-05T02:52:01.971Z,15.99
2023-08-05T02:54:29.186Z,15.97
2023-08-05T02:56:56.278Z,15.92
2023-08-05T02:59:23.449Z,15.93
2023-08-05T03:01:50.605Z,15.89
2023-08-05T03:04:17.782Z,15.92
2023-08-05T03:06:45.036Z,15.92
2023-08-05T03:09:12.203Z,15.83
2023-08-05T03:11:39.383Z,15.76
2023-08-05T03:14:06.534Z,15.77
2023-08-05T03:16:33.650Z,15.79
2023-08-05T03:19:00.819Z,15.77
2023-08-05T03:21:27.953Z,15.68
2023-08-05T03:23:55.127Z,15.57
2023-08-05T03:26:22.307Z,15.52
2023-08-05T03:28:49.390Z,15.54
2023-08-05T03:31:16.566Z,15.62
2023-08-05T03:33:43.878Z,15.68
2023-08-05T03:36:11.076Z,15.74
2023-08-05T03:38:38.233Z,15.75
2023-08-05T03:41:05.794Z,15.79
2023-08-05T03:43:33.751Z,15.72
2023-08-05T03:46:00.922Z,15.73
2023-08-05T03:48:28.108Z,15.72
2023-08-05T03:50:55.229Z,15.62
2023-08-05T03:53:23.476Z,15.59
2023-08-05T03:55:50.624Z,15.57
2023-08-05T03:58:20.738Z,15.61
2023-08-05T04:00:48.145Z,15.64
2023-08-05T04:03:15.952Z,15.70
2023-08-05T04:05:43.131Z,15.70
2023-08-05T04:08:10.225Z,15.73
2023-08-05T04:10:39.610Z,15.77
2023-08-05T04:13:07.255Z,15.80
2023-08-05T04:15:36.339Z,15.83
2023-08-05T04:18:05.788Z,15.86
2023-08-05T04:20:35.523Z,15.84
2023-08-05T04:23:02.950Z,15.82
2023-08-05T04:25:32.379Z,15.83
2023-08-05T04:27:59.692Z,15.84
2023-08-05T04:30:26.912Z,15.89
2023-08-05T04:32:54.091Z,15.94
2023-08-05T04:35:21.238Z,15.94
2023-08-05T04:37:48.400Z,15.97
2023-08-05T04:40:15.719Z,16.00
2023-08-05T04:42:43.005Z,16.02
2023-08-05T04:45:10.746Z,16.06
2023-08-05T04:47:38.040Z,16.08
2023-08-05T04:50:05.545Z,16.08
2023-08-05T04:52:32.848Z,16.10
2023-08-05T04:55:08.336Z,16.14
2023-08-05T04:57:36.275Z,16.18
2023-08-05T05:00:03.634Z,16.22
2023-08-05T05:02:30.833Z,16.26
2023-08-05T05:04:58.821Z,16.29
2023-08-05T05:07:25.943Z,16.33
2023-08-05T05:09:53.068Z,16.39
2023-08-05T05:12:20.197Z,16.39
2023-08-05T05:14:47.900Z,16.40
2023-08-05T05:17:18.902Z,16.44
2023-08-05T05:19:46.257Z,16.47
2023-08-05T05:22:18.598Z,16.50
2023-08-05T05:24:46.864Z,16.47
2023-08-05T05:27:15.849Z,16.47
2023-08-05T05:29:42.999Z,16.48
2023-08-05T05:32:10.923Z,16.49
2023-08-05T05:34:38.393Z,16.51
2023-08-05T05:37:05.602Z,16.53
2023-08-05T05:39:33.733Z,16.55
2023-08-05T05:42:00.986Z,16.59
2023-08-05T05:44:29.108Z,16.62
2023-08-05T05:46:56.669Z,16.67
2023-08-05T05:49:23.876Z,16.66
2023-08-05T05:51:51.269Z,16.71
2023-08-05T05:54:18.590Z,16.76
2023-08-05T05:56:45.725Z,16.79
2023-08-05T05:59:12.862Z,16.81
2023-08-05T06:01:39.983Z,16.84
2023-08-05T06:04:10.884Z,16.83
2023-08-05T06:06:38.410Z,16.87
2023-08-05T06:09:07.033Z,16.92
2023-08-05T06:11:34.302Z,16.96
2023-08-05T06:14:01.510Z,16.98
2023-08-05T06:16:28.623Z,16.98
2023-08-05T06:18:55.737Z,16.98
2023-08-05T06:21:23.885Z,17.00
2023-08-05T06:23:51.279Z,17.02
2023-08-05T06:26:19.246Z,17.03
2023-08-05T06:28:46.383Z,17.03
2023-08-05T06:31:13.520Z,17.06
2023-08-05T06:33:40.725Z,17.06
2023-08-05T06:36:07.894Z,17.06
2023-08-05T06:38:34.965Z,17.03
2023-08-05T06:41:02.109Z,17.05
2023-08-05T06:43:30.006Z,17.06
2023-08-05T06:45:57.148Z,17.07
2023-08-05T06:48:24.395Z,17.05
2023-08-05T06:50:51.637Z,17.04
2023-08-05T06:53:18.860Z,17.00
2023-08-05T06:55:45.962Z,17.00
2023-08-05T06:58:13.287Z,16.99
2023-08-05T07:00:40.470Z,16.99
2023-08-05T07:03:07.763Z,16.98
2023-08-05T07:05:38.543Z,16.96
2023-08-05T07:08:05.615Z,16.91
2023-08-05T07:10:32.710Z,16.87
2023-08-05T07:13:03.121Z,16.86
2023-08-05T07:15:30.257Z,16.86
2023-08-05T07:17:57.456Z,16.89
2023-08-05T07:20:24.671Z,16.87
2023-08-05T07:22:51.890Z,16.93
2023-08-05T07:25:19.013Z,16.97
2023-08-05T07:27:46.119Z,17.00
2023-08-05T07:30:13.250Z,17.02
2023-08-05T07:32:41.056Z,17.06
2023-08-05T07:35:09.091Z,17.06
2023-08-05T07:37:36.937Z,17.00
2023-08-05T07:40:06.874Z,16.96
2023-08-05T07:42:35.503Z,16.96
2023-08-05T07:45:08.277Z,16.94
2023-08-05T07:47:40.426Z,16.96
2023-08-05T07:50:09.131Z,16.96
2023-08-05T07:52:36.904Z,16.95
2023-08-05T07:55:05.560Z,16.97
2023-08-05T07:57:32.841Z,17.01
2023-08-05T08:00:00.001Z,16.98
2023-08-05T08:02:27.197Z,16.99
2023-08-05T08:04:55.481Z,17.02
2023-08-05T08:07:26.082Z,17.03
2023-08-05T08:09:53.183Z,17.06
2023-08-05T08:12:20.380Z,17.09
2023-08-05T08:14:47.515Z,17.17
2023-08-05T08:17:14.633Z,17.27
2023-08-05T08:19:41.811Z,17.36
2023-08-05T08:22:08.923Z,17.42
2023-08-05T08:24:36.299Z,17.47
2023-08-05T08:27:03.838Z,17.50
2023-08-05T08:29:30.957Z,17.53
2023-08-05T08:31:58.280Z,17.60
2023-08-05T08:34:26.727Z,17.68
2023-08-05T08:36:54.545Z,17.74
2023-08-05T08:39:22.174Z,17.80
2023-08-05T08:41:50.534Z,17.81
2023-08-05T08:44:18.360Z,17.81
2023-08-05T08:46:46.566Z,17.87
2023-08-05T08:49:14.594Z,17.90
2023-08-05T08:51:43.948Z,17.92
2023-08-05T08:54:14.618Z,17.95
2023-08-05T08:56:42.194Z,17.98
2023-08-05T08:59:09.595Z,17.99
2023-08-05T09:01:39.824Z,18.01
2023-08-05T09:04:08.074Z,18.01
2023-08-05T09:06:35.909Z,18.04
2023-08-05T09:09:03.065Z,18.02
2023-08-05T09:11:30.155Z,18.01
2023-08-05T09:13:58.223Z,18.01
2023-08-05T09:16:27.648Z,18.04
2023-08-05T09:18:57.450Z,18.06
2023-08-05T09:21:27.927Z,18.07
2023-08-05T09:23:56.255Z,18.02
2023-08-05T09:26:30.731Z,18.04
2023-08-05T09:29:00.800Z,18.11
2023-08-05T09:31:28.005Z,18.12
2023-08-05T09:33:55.350Z,18.18
2023-08-05T09:36:26.372Z,18.24
2023-08-05T09:39:07.277Z,18.25
2023-08-05T09:41:36.539Z,18.29
2023-08-05T09:44:06.222Z,18.36
2023-08-05T09:46:42.416Z,18.40
2023-08-05T09:49:11.852Z,18.41
2023-08-05T09:51:43.575Z,18.46
2023-08-05T09:54:14.703Z,18.47
2023-08-05T09:56:42.064Z,18.54
2023-08-05T09:59:09.423Z,18.56
2023-08-05T10:01:37.583Z,18.59
2023-08-05T10:04:05.240Z,18.64
2023-08-05T10:06:38.648Z,18.66
2023-08-05T10:09:08.571Z,18.64
2023-08-05T10:11:39.474Z,18.68
2023-08-05T10:14:07.438Z,18.68
2023-08-05T10:16:34.997Z,18.67
2023-08-05T10:19:02.230Z,18.71
2023-08-05T10:21:39.301Z,18.75
2023-08-05T10:24:06.631Z,18.79
2023-08-05T10:26:44.657Z,18.80
2023-08-05T10:29:30.848Z,18.81
2023-08-05T10:32:11.730Z,18.82
2023-08-05T10:34:38.905Z,18.85
2023-08-05T10:37:06.157Z,18.86
2023-08-05T10:39:42.967Z,18.91
2023-08-05T10:42:28.405Z,18.91
2023-08-05T10:44:55.969Z,18.92
2023-08-05T10:47:24.042Z,18.91
2023-08-05T10:49:56.703Z,18.97
2023-08-05T10:52:24.876Z,18.98
2023-08-05T10:54:53.152Z,19.07
2023-08-05T10:57:30.802Z,19.11
2023-08-05T11:00:00.171Z,19.12
2023-08-05T11:02:27.686Z,18.99
2023-08-05T11:05:11.647Z,19.01
2023-08-05T11:07:40.122Z,19.05
2023-08-05T11:10:07.989Z,19.06
2023-08-05T11:12:35.183Z,19.05
2023-08-05T11:15:02.492Z,19.09
2023-08-05T11:17:32.503Z,19.09
2023-08-05T11:20:02.785Z,19.08
2023-08-05T11:22:33.697Z,19.02
2023-08-05T11:25:03.043Z,19.05
2023-08-05T11:27:40.195Z,19.04
2023-08-05T11:30:25.908Z,19.04
2023-08-05T11:32:54.211Z,19.04
2023-08-05T11:35:21.961Z,18.99
2023-08-05T11:37:49.345Z,18.97
2023-08-05T11:40:16.893Z,18.98
2023-08-05T11:42:44.553Z,19.01
2023-08-05T11:45:13.462Z,19.07
2023-08-05T11:47:41.479Z,19.11
2023-08-05T11:50:10.358Z,19.14
2023-08-05T11:52:37.951Z,19.16
2023-08-05T11:55:06.873Z,19.16
2023-08-05T11:57:34.455Z,19.19
2023-08-05T12:00:10.886Z,19.21
2023-08-05T12:02:38.402Z,19.14
2023-08-05T12:05:10.451Z,19.18
2023-08-05T12:07:42.539Z,19.21
2023-08-05T12:10:11.192Z,19.27
2023-08-05T12:12:39.000Z,19.29
2023-08-05T12:15:13.119Z,19.34
2023-08-05T12:17:45.557Z,19.40
2023-08-05T12:20:16.587Z,19.46
2023-08-05T12:22:43.966Z,19.51
2023-08-05T12:25:11.080Z,19.58
2023-08-05T12:27:38.227Z,19.65
2023-08-05T12:30:09.609Z,19.68
2023-08-05T12:32:36.993Z,19.63
2023-08-05T12:35:07.231Z,19.62
2023-08-05T12:37:37.750Z,19.62
2023-08-05T12:40:05.963Z,19.62
2023-08-05T12:42:33.675Z,19.66
2023-08-05T12:45:06.110Z,19.71
2023-08-05T12:47:35.842Z,19.73
2023-08-05T12:50:04.214Z,19.73
2023-08-05T12:52:31.386Z,19.75
2023-08-05T12:54:58.496Z,19.76
2023-08-05T12:57:25.875Z,19.76
2023-08-05T12:59:53.233Z,19.76
2023-08-05T13:02:27.281Z,19.75
2023-08-05T13:05:02.200Z,19.78
2023-08-05T13:07:29.425Z,19.79
2023-08-05T13:09:56.526Z,19.79
2023-08-05T13:12:23.654Z,19.82
2023-08-05T13:14:50.756Z,19.84
2023-08-05T13:17:17.909Z,19.86
2023-08-05T13:19:45.213Z,19.86
2023-08-05T13:22:12.333Z,19.91
2023-08-05T13:24:39.618Z,19.93
2023-08-05T13:27:06.773Z,19.97
2023-08-05T13:29:34.012Z,20.01
2023-08-05T13:32:01.119Z,20.06
2023-08-05T13:34:28.345Z,20.11
2023-08-05T13:36:55.569Z,20.11
2023-08-05T13:39:24.157Z,20.13
2023-08-05T13:41:58.757Z,20.14
2023-08-05T13:44:29.336Z,20.20
2023-08-05T13:46:56.527Z,20.25
2023-08-05T13:49:23.716Z,20.24
2023-08-05T13:51:52.482Z,20.22
2023-08-05T13:54:20.282Z,20.22
2023-08-05T13:56:47.404Z,20.17
2023-08-05T13:59:14.487Z,20.15
2023-08-05T14:01:43.655Z,20.16
2023-08-05T14:04:10.834Z,20.16
2023-08-05T14:06:38.130Z,20.15
2023-08-05T14:09:08.884Z,20.12
2023-08-05T14:11:36.271Z,20.10
2023-08-05T14:14:03.548Z,20.06
2023-08-05T14:16:30.773Z,20.03
2023-08-05T14:18:58.027Z,19.98
2023-08-05T14:21:25.283Z,20.00
2023-08-05T14:23:52.422Z,19.99
2023-08-05T14:26:19.555Z,20.01
2023-08-05T14:28:47.414Z,20.00
2023-08-05T14:31:14.617Z,20.00
2023-08-05T14:33:41.797Z,20.03
2023-08-05T14:36:13.125Z,20.01
2023-08-05T14:38:40.243Z,19.97
2023-08-05T14:41:14.338Z,19.96
2023-08-05T14:43:41.464Z,19.98
2023-08-05T14:46:08.990Z,19.99
2023-08-05T14:48:36.513Z,19.99
2023-08-05T14:51:04.185Z,20.01
2023-08-05T14:53:31.312Z,20.04
2023-08-05T14:55:59.029Z,20.04
2023-08-05T14:58:26.511Z,20.02
2023-08-05T15:00:54.013Z,20.06
2023-08-05T15:03:21.733Z,20.10
2023-08-05T15:05:55.535Z,20.09
2023-08-05T15:08:25.435Z,20.14
2023-08-05T15:11:02.116Z,20.13
2023-08-05T15:13:29.333Z,20.10
2023-08-05T15:15:56.644Z,20.14
2023-08-05T15:18:23.823Z,20.13
2023-08-05T15:20:51.058Z,20.10
2023-08-05T15:23:30.076Z,20.10
2023-08-05T15:25:59.055Z,20.11
2023-08-05T15:28:26.232Z,20.11
2023-08-05T15:30:53.337Z,20.09
2023-08-05T15:33:20.649Z,20.10
2023-08-05T15:35:47.754Z,20.09
2023-08-05T15:38:15.014Z,20.07
2023-08-05T15:40:45.441Z,20.08
2023-08-05T15:43:14.381Z,20.07
2023-08-05T15:45:54.464Z,20.07
2023-08-05T15:48:21.617Z,20.04
2023-08-05T15:50:48.763Z,20.02
2023-08-05T15:53:15.874Z,19.98
2023-08-05T15:55:43.198Z,19.97
2023-08-05T15:58:10.309Z,19.96
2023-08-05T16:00:37.662Z,19.95
2023-08-05T16:03:04.873Z,19.93
2023-08-05T16:05:32.015Z,19.92
2023-08-05T16:07:59.119Z,19.90
2023-08-05T16:10:26.202Z,19.90
2023-08-05T16:12:53.295Z,19.85
2023-08-05T16:15:23.247Z,19.87
2023-08-05T16:17:50.733Z,19.89
2023-08-05T16:20:17.997Z,19.90
2023-08-05T16:22:45.217Z,19.86
2023-08-05T16:25:13.318Z,19.87
2023-08-05T16:27:42.070Z,19.88
2023-08-05T16:30:09.623Z,19.90
2023-08-05T16:32:39.101Z,19.87
2023-08-05T16:35:06.595Z,19.84
2023-08-05T16:37:33.736Z,19.87
2023-08-05T16:40:00.866Z,19.88
2023-08-05T16:42:27.960Z,19.88
2023-08-05T16:44:55.095Z,19.82
2023-08-05T16:47:22.235Z,19.74
2023-08-05T16:49:49.507Z,19.70
2023-08-05T16:52:16.741Z,19.68
2023-08-05T16:54:45.108Z,19.65
2023-08-05T16:57:12.285Z,19.62
2023-08-05T16:59:39.426Z,19.58
2023-08-05T17:02:06.787Z,19.59
2023-08-05T17:04:34.725Z,19.59
2023-08-05T17:07:02.044Z,19.54
2023-08-05T17:09:29.201Z,19.52
2023-08-05T17:11:56.598Z,19.45
2023-08-05T17:14:23.760Z,19.45
2023-08-05T17:16:50.983Z,19.42
2023-08-05T17:19:18.147Z,19.32
2023-08-05T17:21:45.246Z,19.30
2023-08-05T17:24:12.614Z,19.33
2023-08-05T17:26:39.716Z,19.30
2023-08-05T17:29:06.931Z,19.21
2023-08-05T17:31:34.250Z,19.20
2023-08-05T17:34:01.377Z,19.20
2023-08-05T17:36:28.503Z,19.20
2023-08-05T17:38:55.722Z,19.16
2023-08-05T17:41:23.003Z,19.19
2023-08-05T17:43:50.150Z,19.17
2023-08-05T17:46:17.313Z,19.13
2023-08-05T17:48:44.475Z,19.09
2023-08-05T17:51:11.658Z,19.08
2023-08-05T17:53:38.763Z,19.03
2023-08-05T17:56:05.888Z,18.90
2023-08-05T17:58:32.998Z,18.87
2023-08-05T18:01:00.208Z,18.81
2023-08-05T18:03:27.426Z,18.76
2023-08-05T18:06:04.403Z,18.71
2023-08-05T18:08:39.183Z,18.73
2023-08-05T18:11:06.299Z,18.71
2023-08-05T18:13:33.546Z,18.69
2023-08-05T18:16:00.838Z,18.72
2023-08-05T18:18:28.025Z,18.73
2023-08-05T18:20:55.173Z,18.69
2023-08-05T18:23:22.316Z,18.66
2023-08-05T18:25:49.466Z,18.62
2023-08-05T18:28:19.400Z,18.54
2023-08-05T18:30:46.680Z,18.44
2023-08-05T18:33:15.039Z,18.44
2023-08-05T18:35:47.997Z,18.37
2023-08-05T18:38:15.968Z,18.32
2023-08-05T18:40:43.342Z,18.27
2023-08-05T18:43:10.639Z,18.26
2023-08-05T18:45:37.941Z,18.24
2023-08-05T18:48:05.421Z,18.23
2023-08-05T18:50:32.542Z,18.22
2023-08-05T18:52:59.735Z,18.25
2023-08-05T18:55:27.703Z,18.28
2023-08-05T18:57:54.787Z,18.22
2023-08-05T19:00:24.634Z,18.18
2023-08-05T19:02:51.777Z,18.22
2023-08-05T19:05:19.699Z,18.20
2023-08-05T19:07:46.866Z,18.21
2023-08-05T19:10:14.686Z,18.21
2023-08-05T19:12:42.053Z,18.21
2023-08-05T19:15:09.604Z,18.18
2023-08-05T19:17:37.011Z,18.13
2023-08-05T19:20:05.300Z,18.17
2023-08-05T19:22:32.486Z,18.17
2023-08-05T19:25:00.632Z,18.18
2023-08-05T19:27:34.413Z,18.16
2023-08-05T19:30:08.609Z,18.10
2023-08-05T19:32:35.896Z,18.07
2023-08-05T19:35:05.755Z,18.06
2023-08-05T19:37:33.496Z,18.07
2023-08-05T19:40:00.683Z,18.05
2023-08-05T19:42:27.870Z,18.00
2023-08-05T19:44:54.951Z,18.01
2023-08-05T19:47:22.089Z,18.02
2023-08-05T19:49:50.311Z,18.04
2023-08-05T19:52:17.499Z,18.05
2023-08-05T19:54:44.586Z,18.03
2023-08-05T19:57:12.382Z,18.05
2023-08-05T19:59:39.502Z,18.04
2023-08-05T20:02:06.786Z,18.03
2023-08-05T20:04:33.935Z,18.00
2023-08-05T20:07:01.087Z,17.97
2023-08-05T20:09:28.315Z,17.95
2023-08-05T20:11:55.573Z,17.96
2023-08-05T20:14:22.961Z,17.96
2023-08-05T20:16:50.703Z,17.94
2023-08-05T20:19:18.029Z,17.91
2023-08-05T20:21:45.515Z,17.91
2023-08-05T20:24:14.127Z,17.90
2023-08-05T20:26:42.209Z,17.86
2023-08-05T20:29:09.366Z,17.84
2023-08-05T20:31:36.534Z,17.81
2023-08-05T20:34:05.844Z,17.79
2023-08-05T20:36:33.337Z,17.76
2023-08-05T20:39:00.537Z,17.76
2023-08-05T20:41:29.609Z,17.76
2023-08-05T20:43:56.756Z,17.76
2023-08-05T20:46:23.912Z,17.77
2023-08-05T20:48:51.105Z,17.77
2023-08-05T20:51:19.032Z,17.74
2023-08-05T20:53:46.239Z,17.70
2023-08-05T20:56:14.647Z,17.68
2023-08-05T20:58:41.791Z,17.68
2023-08-05T21:01:13.106Z,17.65
2023-08-05T21:03:40.262Z,17.66
2023-08-05T21:06:07.643Z,17.66
2023-08-05T21:08:34.946Z,17.66
2023-08-05T21:11:09.315Z,17.66
2023-08-05T21:13:37.634Z,17.62
2023-08-05T21:16:05.507Z,17.63
2023-08-05T21:18:33.896Z,17.62
2023-08-05T21:21:04.478Z,17.60
2023-08-05T21:23:31.654Z,17.57
2023-08-05T21:25:58.933Z,17.54
2023-08-05T21:28:26.079Z,17.53
2023-08-05T21:31:00.819Z,17.53
2023-08-05T21:33:28.802Z,17.51
2023-08-05T21:35:56.684Z,17.42
2023-08-05T21:38:23.814Z,17.33
2023-08-05T21:40:51.467Z,17.25
2023-08-05T21:43:18.778Z,17.23
2023-08-05T21:45:57.385Z,17.26
2023-08-05T21:48:25.360Z,17.24
2023-08-05T21:50:52.710Z,17.27
2023-08-05T21:53:20.540Z,17.23
2023-08-05T21:55:47.701Z,17.21
2023-08-05T21:58:15.009Z,17.11
2023-08-05T22:00:42.145Z,17.12
2023-08-05T22:03:11.506Z,17.09
2023-08-05T22:05:38.682Z,17.11
2023-08-05T22:08:06.086Z,17.12
2023-08-05T22:10:33.244Z,17.07
2023-08-05T22:13:00.356Z,17.05
2023-08-05T22:15:29.063Z,17.04
2023-08-05T22:17:56.419Z,17.04
2023-08-05T22:20:23.657Z,17.03
2023-08-05T22:22:50.997Z,17.01
2023-08-05T22:25:18.162Z,16.99
2023-08-05T22:27:45.306Z,16.95
2023-08-05T22:30:12.493Z,16.91
2023-08-05T22:32:39.667Z,16.85
2023-08-05T22:35:07.027Z,16.83
2023-08-05T22:37:34.178Z,16.85
2023-08-05T22:40:02.056Z,16.86
2023-08-05T22:42:29.411Z,16.82
2023-08-05T22:44:56.545Z,16.78
2023-08-05T22:47:23.885Z,16.77
2023-08-05T22:49:51.101Z,16.78
2023-08-05T22:52:18.296Z,16.78
2023-08-05T22:54:45.379Z,16.76
2023-08-05T22:57:12.607Z,16.70
2023-08-05T22:59:39.704Z,16.67
2023-08-05T23:02:07.257Z,16.66
2023-08-05T23:04:34.444Z,16.64
2023-08-05T23:07:01.555Z,16.60
2023-08-05T23:09:28.638Z,16.59
2023-08-05T23:11:56.072Z,16.57
2023-08-05T23:14:23.365Z,16.51
2023-08-05T23:16:50.582Z,16.53
2023-08-05T23:19:17.760Z,16.54
2023-08-05T23:21:44.943Z,16.54
2023-08-05T23:24:12.228Z,16.56
2023-08-05T23:26:39.554Z,16.54
2023-08-05T23:29:06.751Z,16.53
2023-08-05T23:31:34.251Z,16.50
2023-08-05T23:34:01.526Z,16.46
2023-08-05T23:36:28.669Z,16.41
2023-08-05T23:38:55.916Z,16.37
2023-08-05T23:41:23.068Z,16.38
2023-08-05T23:43:50.268Z,16.32
2023-08-05T23:46:17.430Z,16.30
2023-08-05T23:48:44.624Z,16.20
2023-08-05T23:51:11.777Z,16.08
2023-08-05T23:53:38.875Z,16.02
2023-08-05T23:56:06.306Z,16.01
2023-08-05T23:58:33.585Z,16.04
